Rechercher aéroport 
image banner adimage banner adimage banner ad
image banner ad

2O7 - Independence

Situé à Independence, United States

ICAO - 2O7, IATA -

Données fournies par Airmate  

Information générale

Coordonnées: N36°48'59" W118°12'18"
Élévation : 3908 feet MSL.
Variation magnétique : 15° East
Voir autres Aéroports à California

Données opérationnelles

Special qualification required
Heure actuelle UTC:
Heure actuelle locale:
Météo à : KBIH - Bishop ( 63 km )
METAR: KBIH 251556Z AUTO 19005KT 10SM CLR 29/08 A3008 RMK AO2 SLP125 T02940083
TAF: KBIH 251148Z 2512/2612 32007KT P6SM FEW110 BKN140 FM252100 17012G20KT P6SM BKN140 FM260100 13010KT P6SM BKN140
Voir NOTAMs / SUP AIP / TFR affectant cet aéroport [VIEW]
Fréquences de communication: [VIEW]

Pistes:

Identifiant RWYQFULongueur (ft)Largeur (ft)SurfaceLDA (ft)
0568°149830EARTH
23248°149830EARTH
14157°353360ASPH
32337°353360ASPH

Coordonnées de l'aéroport

Adresse: Independence United States

Vue satellite de 2O7